createdAt,value
2022-10-31T00:00:50.061Z,101118.69
2022-10-31T00:03:18.342Z,101118.72
2022-10-31T00:05:48.373Z,101101.88
2022-10-31T00:08:16.337Z,101110.16
2022-10-31T00:10:44.994Z,101117.97
2022-10-31T00:13:15.870Z,101114.63
2022-10-31T00:15:43.824Z,101111.25
2022-10-31T00:18:12.256Z,101064.13
2022-10-31T00:20:41.383Z,101119.91
2022-10-31T00:23:09.372Z,101128.50
2022-10-31T00:25:40.743Z,100903.78
2022-10-31T00:28:11.244Z,100924.25
2022-10-31T00:30:40.665Z,101132.00
2022-10-31T00:33:08.983Z,101103.31
2022-10-31T00:35:38.720Z,100862.41
2022-10-31T00:38:07.019Z,101132.81
2022-10-31T00:40:35.017Z,101080.41
2022-10-31T00:43:03.593Z,101083.00
2022-10-31T00:45:32.961Z,101039.72
2022-10-31T00:48:02.745Z,101021.50
2022-10-31T00:50:32.687Z,101004.38
2022-10-31T00:53:01.372Z,101119.16
2022-10-31T00:55:29.423Z,101071.84
2022-10-31T00:57:58.747Z,101128.50
2022-10-31T01:00:27.883Z,100995.19
2022-10-31T01:02:56.133Z,100976.56
2022-10-31T01:05:25.699Z,101133.72
2022-10-31T01:07:53.657Z,100917.25
2022-10-31T01:10:21.679Z,101117.59
2022-10-31T01:12:51.746Z,101138.00
2022-10-31T01:15:22.075Z,101078.69
2022-10-31T01:17:51.378Z,101018.09
2022-10-31T01:20:20.027Z,100973.94
2022-10-31T01:22:49.602Z,101020.41
2022-10-31T01:25:17.692Z,101120.91
2022-10-31T01:27:45.597Z,100979.72
2022-10-31T01:30:14.143Z,101052.44
2022-10-31T01:32:41.934Z,101116.72
2022-10-31T01:35:10.062Z,100999.25
2022-10-31T01:37:37.877Z,101092.94
2022-10-31T01:40:09.023Z,101096.97
2022-10-31T01:42:36.813Z,101096.91
2022-10-31T01:45:07.153Z,101099.50
2022-10-31T01:47:42.899Z,101095.22
2022-10-31T01:50:30.355Z,101096.16
2022-10-31T01:52:59.011Z,101065.88
2022-10-31T01:55:31.908Z,100998.41
2022-10-31T01:58:03.917Z,101104.16
2022-10-31T02:00:32.510Z,101103.19
2022-10-31T02:03:01.114Z,101050.72
2022-10-31T02:05:31.634Z,101087.88
2022-10-31T02:08:03.665Z,101081.81
2022-10-31T02:10:34.830Z,101079.31
2022-10-31T02:13:05.856Z,101084.56
2022-10-31T02:15:40.004Z,100777.97
2022-10-31T02:18:09.535Z,100936.09
2022-10-31T02:20:46.000Z,100962.25
2022-10-31T02:23:55.898Z,100922.03
2022-10-31T02:26:55.779Z,100658.19
2022-10-31T02:30:09.306Z,100719.66
2022-10-31T02:32:49.963Z,100827.31
2022-10-31T02:35:32.031Z,101094.97
2022-10-31T02:38:06.553Z,101127.66
2022-10-31T02:40:55.596Z,100985.22
2022-10-31T02:44:47.043Z,101087.34
2022-10-31T02:47:18.187Z,101081.50
2022-10-31T02:49:53.648Z,101087.31
2022-10-31T02:52:23.379Z,100937.69
2022-10-31T02:54:52.114Z,101106.19
2022-10-31T02:57:26.818Z,100944.72
2022-10-31T02:59:59.517Z,101086.50
2022-10-31T03:02:48.279Z,101100.13
2022-10-31T03:05:51.108Z,100923.53
2022-10-31T03:08:26.281Z,101015.69
2022-10-31T03:11:00.638Z,100692.94
2022-10-31T03:13:37.184Z,100713.97
2022-10-31T03:16:12.205Z,100797.53
2022-10-31T03:18:42.577Z,100944.81
2022-10-31T03:21:15.733Z,101107.13
2022-10-31T03:23:47.626Z,100984.66
2022-10-31T03:26:23.676Z,101013.31
2022-10-31T03:28:58.432Z,101104.72
2022-10-31T03:32:00.829Z,101084.31
2022-10-31T03:50:24.583Z,101103.44
2022-10-31T03:53:54.916Z,101098.34
2022-10-31T03:56:51.584Z,101108.66
2022-10-31T03:59:42.852Z,101116.44
2022-10-31T04:05:43.665Z,101097.72
2022-10-31T04:08:24.465Z,101078.25
2022-10-31T04:11:01.036Z,101119.84
2022-10-31T04:13:35.675Z,101113.84
2022-10-31T04:16:15.988Z,101102.63
2022-10-31T04:19:27.483Z,101105.22
2022-10-31T04:23:33.932Z,101095.03
2022-10-31T04:27:25.980Z,101085.66
2022-10-31T04:30:44.717Z,101072.22
2022-10-31T04:33:19.099Z,101084.09
2022-10-31T04:35:57.008Z,101005.38
2022-10-31T04:38:38.897Z,101079.00
2022-10-31T04:41:22.947Z,100990.53
2022-10-31T04:44:12.212Z,101068.22
2022-10-31T04:46:53.313Z,101083.53
2022-10-31T04:53:14.467Z,101054.13
2022-10-31T04:56:07.459Z,101093.78
2022-10-31T04:58:42.001Z,101068.41
2022-10-31T05:01:19.662Z,101079.31
2022-10-31T05:03:53.794Z,101078.44
2022-10-31T05:06:35.960Z,100987.88
2022-10-31T05:09:30.763Z,100988.59
2022-10-31T05:11:58.934Z,100922.66
2022-10-31T05:14:48.486Z,100978.41
2022-10-31T05:39:57.031Z,100973.72
2022-10-31T05:42:41.896Z,101065.19
2022-10-31T05:45:12.248Z,101060.88
2022-10-31T05:47:54.199Z,100939.75
2022-10-31T05:50:40.613Z,100872.03
2022-10-31T05:53:13.738Z,100741.03
2022-10-31T05:55:45.355Z,101037.75
2022-10-31T05:58:16.372Z,100789.91
2022-10-31T06:00:52.692Z,101035.84
2022-10-31T06:03:20.890Z,100941.84
2022-10-31T06:05:55.530Z,100807.47
2022-10-31T06:09:04.703Z,100778.69
2022-10-31T06:12:22.144Z,101071.59
2022-10-31T06:15:18.675Z,100654.94
2022-10-31T06:17:59.417Z,101048.38
2022-10-31T06:20:28.591Z,101025.56
2022-10-31T06:23:05.082Z,101041.28
2022-10-31T06:25:34.777Z,101039.47
2022-10-31T06:28:04.010Z,101041.94
2022-10-31T06:30:42.811Z,101044.44
2022-10-31T06:33:10.693Z,101038.38
2022-10-31T06:35:47.152Z,101043.44
2022-10-31T06:38:15.191Z,100997.75
2022-10-31T06:40:44.338Z,101027.03
2022-10-31T06:43:23.474Z,101037.59
2022-10-31T06:45:59.210Z,101008.53
2022-10-31T06:48:33.286Z,101043.66
2022-10-31T06:51:20.329Z,101044.81
2022-10-31T06:53:51.062Z,101051.00
2022-10-31T06:56:19.498Z,101044.31
2022-10-31T06:58:55.265Z,101041.06
2022-10-31T07:02:02.826Z,101025.81
2022-10-31T07:04:40.818Z,101043.81
2022-10-31T07:07:12.718Z,101045.19
2022-10-31T07:09:48.484Z,101042.06
2022-10-31T07:12:22.310Z,100993.16
2022-10-31T07:15:15.759Z,101046.22
2022-10-31T07:17:53.467Z,101042.19
2022-10-31T07:20:23.600Z,101035.28
2022-10-31T07:22:52.164Z,101036.13
2022-10-31T07:25:20.624Z,101019.47
2022-10-31T07:28:06.912Z,100988.03
2022-10-31T07:30:36.365Z,101036.38
2022-10-31T07:33:04.688Z,101035.94
2022-10-31T07:35:58.268Z,101036.75
2022-10-31T07:38:30.913Z,101018.84
2022-10-31T07:41:04.221Z,101046.97
2022-10-31T07:43:34.153Z,101044.16
2022-10-31T07:46:26.862Z,101029.63
2022-10-31T07:49:13.186Z,101037.28
2022-10-31T07:51:59.587Z,101018.25
2022-10-31T07:54:46.163Z,101029.16
2022-10-31T07:57:15.182Z,101049.50
2022-10-31T07:59:44.724Z,101045.06
2022-10-31T08:02:14.319Z,101041.19
2022-10-31T08:05:02.673Z,101038.69
2022-10-31T08:07:31.049Z,100880.00
2022-10-31T08:10:06.216Z,101047.72
2022-10-31T08:12:35.674Z,101043.69
2022-10-31T08:15:06.142Z,101026.69
2022-10-31T08:17:38.718Z,101044.44
2022-10-31T08:20:07.792Z,101053.25
2022-10-31T08:22:43.877Z,101045.66
2022-10-31T08:25:12.793Z,101042.22
2022-10-31T08:27:40.720Z,101043.25
2022-10-31T08:30:16.256Z,101045.81
2022-10-31T08:33:01.380Z,101018.84
2022-10-31T08:35:49.910Z,101041.09
2022-10-31T08:38:40.489Z,101027.06
2022-10-31T08:41:10.702Z,101027.81
2022-10-31T08:43:38.673Z,100977.25
2022-10-31T08:46:07.109Z,101017.88
2022-10-31T08:48:36.357Z,101017.53
2022-10-31T08:51:05.499Z,101009.22
2022-10-31T08:53:33.867Z,100951.47
2022-10-31T08:56:23.264Z,100863.03
2022-10-31T08:58:52.035Z,100954.97
2022-10-31T09:01:25.900Z,100994.13
2022-10-31T09:03:55.313Z,101021.25
2022-10-31T09:06:24.170Z,100913.06
2022-10-31T09:08:52.210Z,101013.34
2022-10-31T09:11:20.250Z,101014.44
2022-10-31T09:14:08.121Z,101015.72
2022-10-31T09:16:54.639Z,101008.25
2022-10-31T09:19:31.469Z,101000.19
2022-10-31T09:21:59.872Z,100743.59
2022-10-31T09:24:28.161Z,100980.28
2022-10-31T09:26:56.003Z,100989.84
2022-10-31T09:29:29.805Z,100965.75
2022-10-31T09:32:00.848Z,100973.03
2022-10-31T09:34:34.565Z,100987.97
2022-10-31T09:37:11.953Z,100727.66
2022-10-31T09:39:41.382Z,100985.47
2022-10-31T09:42:36.016Z,100981.28
2022-10-31T09:45:15.990Z,100982.13
2022-10-31T09:47:55.742Z,100983.72
2022-10-31T09:50:42.152Z,100966.16
2022-10-31T09:53:44.334Z,100969.34
2022-10-31T09:56:18.163Z,100967.28
2022-10-31T09:58:48.255Z,100968.00
2022-10-31T10:01:30.980Z,100960.13
2022-10-31T10:04:21.430Z,100943.78
2022-10-31T10:08:05.971Z,100958.03
2022-10-31T10:15:13.332Z,100864.56
2022-10-31T10:17:52.657Z,100909.16
2022-10-31T10:20:36.259Z,100908.44
2022-10-31T10:23:27.826Z,100851.28
2022-10-31T10:26:10.975Z,100932.28
2022-10-31T10:28:45.004Z,100919.47
2022-10-31T10:31:22.912Z,100916.50
2022-10-31T10:34:26.949Z,100899.97
2022-10-31T10:37:02.879Z,100900.84
2022-10-31T10:39:37.049Z,100902.88
2022-10-31T10:42:30.700Z,100898.09
2022-10-31T10:45:17.870Z,100878.63
2022-10-31T10:47:54.714Z,100870.72
2022-10-31T10:50:36.083Z,100880.25
2022-10-31T10:53:27.291Z,100876.00
2022-10-31T10:56:18.893Z,100874.81
2022-10-31T10:58:46.924Z,100881.66
2022-10-31T11:03:49.187Z,100776.53
2022-10-31T11:06:25.739Z,100874.91
2022-10-31T11:08:54.825Z,100819.56
2022-10-31T11:11:30.999Z,100857.59
2022-10-31T11:14:05.403Z,100870.59
2022-10-31T11:16:41.168Z,100816.28
2022-10-31T11:19:16.730Z,100809.78
2022-10-31T11:21:49.825Z,100854.69
2022-10-31T11:24:23.854Z,100855.53
2022-10-31T11:26:53.827Z,100843.66
2022-10-31T11:29:25.750Z,100823.91
2022-10-31T11:31:55.706Z,100857.19
2022-10-31T11:34:32.636Z,100849.19
2022-10-31T11:37:06.614Z,100847.53
2022-10-31T11:39:34.710Z,100769.53
2022-10-31T11:42:08.906Z,100843.38
2022-10-31T11:44:38.191Z,100842.69
2022-10-31T11:47:16.563Z,100828.00
2022-10-31T11:50:15.162Z,100518.41
2022-10-31T11:52:43.273Z,100803.06
2022-10-31T11:55:31.336Z,100806.50
2022-10-31T11:58:01.033Z,100808.69
2022-10-31T12:00:31.428Z,100802.84
2022-10-31T12:03:24.858Z,100785.97
2022-10-31T12:06:00.792Z,100763.56
2022-10-31T12:08:33.409Z,100785.78
2022-10-31T12:11:12.100Z,100733.06
2022-10-31T12:14:01.156Z,100778.94
2022-10-31T12:16:38.902Z,100758.56
2022-10-31T12:19:18.340Z,100677.75
2022-10-31T12:21:58.146Z,100762.41
2022-10-31T12:24:44.703Z,100758.56
2022-10-31T12:27:28.368Z,100767.84
2022-10-31T12:30:23.103Z,100754.00
2022-10-31T12:33:20.268Z,100755.81
2022-10-31T12:36:00.506Z,100739.97
2022-10-31T12:38:45.360Z,100737.91
2022-10-31T12:41:26.422Z,100742.72
2022-10-31T12:43:59.502Z,100733.53
2022-10-31T12:46:46.237Z,100736.97
2022-10-31T12:49:28.571Z,100731.25
2022-10-31T12:52:09.291Z,100680.66
2022-10-31T12:54:52.530Z,100714.53
2022-10-31T12:57:29.615Z,100712.25
2022-10-31T13:00:02.779Z,100703.56
2022-10-31T13:02:37.042Z,100693.47
2022-10-31T13:05:13.024Z,100680.78
2022-10-31T13:07:46.359Z,100681.72
2022-10-31T13:10:20.143Z,100672.91
2022-10-31T13:12:55.433Z,100679.13
2022-10-31T13:15:25.826Z,100676.75
2022-10-31T13:17:58.462Z,100664.00
2022-10-31T13:20:29.847Z,100660.53
2022-10-31T13:23:17.642Z,100641.28
2022-10-31T13:25:55.118Z,100646.28
2022-10-31T13:28:32.401Z,100636.63
2022-10-31T13:31:00.091Z,100635.81
2022-10-31T13:33:33.948Z,100635.56
2022-10-31T13:36:16.805Z,100632.94
2022-10-31T13:38:52.930Z,100599.47
2022-10-31T13:41:34.543Z,100626.25
2022-10-31T13:44:05.838Z,100630.66
2022-10-31T13:46:40.248Z,100628.63
2022-10-31T13:49:40.710Z,100614.22
2022-10-31T13:52:17.629Z,100623.63
2022-10-31T13:54:47.632Z,100628.41
2022-10-31T13:57:20.532Z,100628.16
2022-10-31T13:59:55.686Z,100634.47
2022-10-31T14:02:28.923Z,100633.59
2022-10-31T14:05:01.949Z,100628.97
2022-10-31T14:07:31.684Z,100616.94
2022-10-31T14:10:03.518Z,100542.38
2022-10-31T14:12:35.538Z,100395.44
2022-10-31T14:15:14.730Z,100555.50
2022-10-31T14:17:52.212Z,100577.66
2022-10-31T14:20:35.984Z,100587.31
2022-10-31T14:23:35.253Z,100582.41
2022-10-31T14:26:20.726Z,100585.50
2022-10-31T14:28:50.334Z,100566.69
2022-10-31T14:31:37.902Z,100541.41
2022-10-31T14:34:23.024Z,100563.81
2022-10-31T14:37:18.399Z,100543.09
2022-10-31T14:39:59.465Z,100567.84
2022-10-31T14:42:47.249Z,100553.91
2022-10-31T14:45:30.924Z,100550.72
2022-10-31T14:48:13.668Z,100558.91
2022-10-31T14:50:51.056Z,100557.84
2022-10-31T14:53:25.598Z,100561.06
2022-10-31T14:55:55.289Z,100553.00
2022-10-31T14:58:25.857Z,100541.09
2022-10-31T15:00:57.590Z,100553.22
2022-10-31T15:03:31.788Z,100552.28
2022-10-31T15:06:03.487Z,100549.91
2022-10-31T15:08:40.484Z,100515.03
2022-10-31T15:11:13.330Z,100533.72
2022-10-31T15:13:46.431Z,100529.44
2022-10-31T15:16:16.621Z,100512.16
2022-10-31T15:18:51.612Z,100518.81
2022-10-31T15:21:21.236Z,100514.28
2022-10-31T15:23:52.679Z,100505.56
2022-10-31T15:26:23.361Z,100476.09
2022-10-31T15:29:00.916Z,100501.78
2022-10-31T15:31:28.653Z,100499.88
2022-10-31T15:34:00.578Z,100493.44
2022-10-31T15:36:29.876Z,100489.75
2022-10-31T15:39:00.921Z,100459.34
2022-10-31T15:41:35.399Z,100484.91
2022-10-31T15:44:09.559Z,100492.69
2022-10-31T15:46:37.724Z,100482.31
2022-10-31T15:49:05.901Z,100471.63
2022-10-31T15:51:38.272Z,100470.31
2022-10-31T15:54:13.191Z,100454.47
2022-10-31T15:56:41.161Z,100470.81
2022-10-31T15:59:21.374Z,100460.91
2022-10-31T16:02:02.865Z,100471.25
2022-10-31T16:04:31.466Z,100482.75
2022-10-31T16:07:04.330Z,100478.19
2022-10-31T16:09:33.572Z,100467.44
2022-10-31T16:12:01.348Z,100475.91
2022-10-31T16:14:32.628Z,100474.00
2022-10-31T16:17:01.564Z,100473.78
2022-10-31T16:19:31.935Z,100460.63
2022-10-31T16:22:07.487Z,100460.94
2022-10-31T16:24:48.504Z,100467.50
2022-10-31T16:27:20.741Z,100414.78
2022-10-31T16:29:49.364Z,100432.00
2022-10-31T16:32:32.845Z,100483.94
2022-10-31T16:35:04.094Z,100477.31
2022-10-31T16:37:32.078Z,100404.31
2022-10-31T16:40:01.898Z,100476.78
2022-10-31T16:42:30.174Z,100398.31
2022-10-31T16:44:58.260Z,100452.94
2022-10-31T16:47:28.618Z,100402.16
2022-10-31T16:50:00.689Z,100457.03
2022-10-31T16:52:37.943Z,100428.28
2022-10-31T16:55:15.145Z,100376.31
2022-10-31T16:57:46.078Z,100458.63
2022-10-31T17:00:18.573Z,100457.50
2022-10-31T17:02:47.927Z,100451.56
2022-10-31T17:05:17.496Z,100471.53
2022-10-31T17:07:45.957Z,100441.34
2022-10-31T17:10:16.894Z,100468.09
2022-10-31T17:12:57.463Z,100425.72
2022-10-31T17:15:27.780Z,100468.09
2022-10-31T17:17:56.456Z,100467.59
2022-10-31T17:20:26.276Z,100473.34
2022-10-31T17:22:54.949Z,100462.72
2022-10-31T17:25:26.216Z,100465.50
2022-10-31T17:27:54.371Z,100462.50
2022-10-31T17:30:23.628Z,100466.22
2022-10-31T17:32:52.402Z,100452.44
2022-10-31T17:35:20.437Z,100465.50
2022-10-31T17:37:49.137Z,100469.44
2022-10-31T17:40:19.675Z,100456.81
2022-10-31T17:42:52.838Z,100439.91
2022-10-31T17:45:21.681Z,100448.88
2022-10-31T17:47:51.610Z,100447.44
2022-10-31T17:50:21.188Z,100440.19
2022-10-31T17:52:49.784Z,100380.81
2022-10-31T17:55:18.863Z,100455.69
2022-10-31T17:57:47.145Z,100422.47
2022-10-31T18:00:22.728Z,100465.03
2022-10-31T18:03:05.837Z,100428.34
2022-10-31T18:05:38.606Z,100453.13
2022-10-31T18:08:07.732Z,100414.94
2022-10-31T18:10:36.689Z,100449.31
2022-10-31T18:13:07.683Z,100439.28
2022-10-31T18:15:40.485Z,100358.81
2022-10-31T18:18:08.647Z,100448.47
2022-10-31T18:20:37.089Z,100383.31
2022-10-31T18:23:08.481Z,100247.91
2022-10-31T18:25:41.001Z,100430.19
2022-10-31T18:28:09.539Z,100436.53
2022-10-31T18:30:43.427Z,100420.03
2022-10-31T18:33:13.949Z,100333.19
2022-10-31T18:35:44.631Z,100425.06
2022-10-31T18:38:15.401Z,100431.63
2022-10-31T18:40:45.952Z,100355.72
2022-10-31T18:43:16.770Z,100351.59
2022-10-31T18:45:48.636Z,100397.91
2022-10-31T18:48:18.468Z,100417.31
2022-10-31T18:50:46.876Z,100415.88
2022-10-31T18:53:14.699Z,100391.97
2022-10-31T18:55:47.251Z,100414.66
2022-10-31T18:58:19.025Z,100421.88
2022-10-31T19:00:48.240Z,100341.56
2022-10-31T19:03:18.771Z,100404.28
2022-10-31T19:05:48.705Z,100373.63
2022-10-31T19:08:17.140Z,100396.47
2022-10-31T19:10:45.014Z,100398.75
2022-10-31T19:13:14.892Z,100399.84
2022-10-31T19:15:43.509Z,100315.78
2022-10-31T19:18:14.543Z,100300.97
2022-10-31T19:20:44.908Z,100288.13
2022-10-31T19:23:12.855Z,100397.81
2022-10-31T19:25:40.863Z,100401.31
2022-10-31T19:28:11.338Z,100364.50
2022-10-31T19:30:39.108Z,100396.22
2022-10-31T19:33:07.156Z,100400.56
2022-10-31T19:35:37.440Z,100393.72
2022-10-31T19:38:05.214Z,100397.19
2022-10-31T19:40:32.923Z,100391.19
2022-10-31T19:43:00.781Z,100397.28
2022-10-31T19:45:28.458Z,100361.38
2022-10-31T19:47:56.142Z,100402.59
2022-10-31T19:50:23.869Z,100405.19
2022-10-31T19:52:53.129Z,100404.22
2022-10-31T19:55:20.876Z,100357.09
2022-10-31T19:58:01.455Z,100380.72
2022-10-31T20:00:29.989Z,100393.97
2022-10-31T20:02:58.001Z,100381.50
2022-10-31T20:05:25.967Z,100396.50
2022-10-31T20:07:56.447Z,100385.38
2022-10-31T20:10:25.126Z,100377.88
2022-10-31T20:12:53.083Z,100224.03
2022-10-31T20:15:24.438Z,100378.84
2022-10-31T20:17:56.217Z,100298.00
2022-10-31T20:20:28.424Z,99977.22
2022-10-31T20:22:59.713Z,100297.84
2022-10-31T20:25:28.134Z,100193.50
2022-10-31T20:27:56.137Z,100356.53
2022-10-31T20:30:34.371Z,100077.34
2022-10-31T20:33:05.802Z,100142.88
2022-10-31T20:35:37.800Z,100028.78
2022-10-31T20:38:07.934Z,100198.56
2022-10-31T20:40:37.060Z,100343.31
2022-10-31T20:43:06.175Z,100320.47
2022-10-31T20:45:35.964Z,100327.78
2022-10-31T20:48:04.864Z,100337.53
2022-10-31T20:50:33.361Z,100246.03
2022-10-31T20:53:01.665Z,100325.22
2022-10-31T20:55:30.957Z,100323.34
2022-10-31T20:57:58.662Z,100309.06
2022-10-31T21:00:26.345Z,100322.09
2022-10-31T21:02:54.177Z,100274.22
2022-10-31T21:05:25.278Z,100221.44
2022-10-31T21:07:53.785Z,100246.59
2022-10-31T21:10:25.404Z,100217.91
2022-10-31T21:12:58.942Z,100243.09
2022-10-31T21:15:32.084Z,100313.34
2022-10-31T21:18:02.982Z,100295.53
2022-10-31T21:20:31.672Z,100307.19
2022-10-31T21:23:02.468Z,100317.44
2022-10-31T21:28:33.469Z,100314.19
2022-10-31T21:33:52.808Z,100312.50
2022-10-31T21:36:21.894Z,100311.97
2022-10-31T21:39:00.325Z,100271.63
2022-10-31T21:41:30.474Z,100300.44
2022-10-31T21:44:00.576Z,100309.81
2022-10-31T21:46:30.297Z,100289.97
2022-10-31T21:48:59.348Z,100303.88
2022-10-31T21:51:31.513Z,100301.28
2022-10-31T21:54:17.524Z,100303.88
2022-10-31T21:56:46.019Z,100293.66
2022-10-31T21:59:15.568Z,100253.34
2022-10-31T22:01:59.063Z,100279.13
2022-10-31T22:04:29.814Z,100189.75
2022-10-31T22:06:59.271Z,100284.91
2022-10-31T22:09:27.382Z,100270.44
2022-10-31T22:11:57.912Z,100168.91
2022-10-31T22:14:27.246Z,100269.72
2022-10-31T22:16:55.207Z,100266.28
2022-10-31T22:19:23.310Z,100264.44
2022-10-31T22:21:51.142Z,100260.84
2022-10-31T22:24:19.700Z,100238.22
2022-10-31T22:26:48.040Z,100214.88
2022-10-31T22:29:18.792Z,100253.75
2022-10-31T22:32:13.757Z,100249.34
2022-10-31T22:34:44.096Z,100243.16
2022-10-31T22:37:19.783Z,100121.06
2022-10-31T22:39:52.819Z,100242.56
2022-10-31T22:42:21.235Z,100242.22
2022-10-31T22:44:49.466Z,100241.88
2022-10-31T22:47:19.130Z,100233.44
2022-10-31T22:49:47.266Z,100240.19
2022-10-31T22:52:15.905Z,100202.25
2022-10-31T22:54:44.172Z,100221.31
2022-10-31T22:57:12.232Z,100140.03
2022-10-31T22:59:40.313Z,100195.56
2022-10-31T23:02:08.694Z,100258.22
2022-10-31T23:04:41.082Z,100241.53
2022-10-31T23:07:12.357Z,100175.00
2022-10-31T23:09:42.552Z,100256.81
2022-10-31T23:12:24.389Z,100212.50
2022-10-31T23:14:52.815Z,100259.81
2022-10-31T23:17:21.042Z,100259.81
2022-10-31T23:19:50.634Z,100265.81
2022-10-31T23:22:18.892Z,100148.53
2022-10-31T23:24:48.827Z,100265.25
2022-10-31T23:27:22.591Z,100203.66
2022-10-31T23:30:09.417Z,99943.66
2022-10-31T23:32:40.946Z,100085.28
2022-10-31T23:35:11.423Z,100032.19
2022-10-31T23:37:41.031Z,99907.13
2022-10-31T23:40:10.650Z,100269.44
2022-10-31T23:42:39.969Z,100271.97
2022-10-31T23:45:10.137Z,100252.56
2022-10-31T23:47:42.403Z,100272.22
2022-10-31T23:50:14.339Z,100257.81
2022-10-31T23:52:42.395Z,100259.84
2022-10-31T23:55:10.642Z,100143.94
2022-10-31T23:57:38.691Z,100241.06
